Oceola, Ohio
Current Conditions -  °F | °C
As of 3:31 PM on Thursday 29 Jan 2015 (Local Time) from KMNN Reporting Station
Haze Haze  
Wind Chill: 29°   Ceiling: 1400
Heat Index: 38°   Visibility: 2.5mi
Dew Point: 34°   Wind: 17mph
Humidity: 86%   Direction: 260°W
Pressure: 29.77"   Gusts: 25mph
Location:  40.84°N, 83.09°W
Report Text: KMNN 292031Z AUTO 26015G22KT 2 1/2SM BR FEW009 OVC014 03/01 A2977 RMK AO2 T00330011 TSNO
Loading
Personal Weather Stations






























Interactive Weather Map New forecast layout! Learn more

10-Day Weather Forecast

Advertisements
Track Severe Weather on mobile